Home Music Articles Forums Blog Chat More...      
haribo
(hoon)


Member Since: Friday, July 08 2005 @ 01:48 PM CDT
Contact: send a note
Homepage: http://www.hoonmusic.com
Location: seoul, korea
Song Comments: 340
Song Votes: 7
Forum Posts: 21
Weekly Points: 0.00
Total Points: 1836.30
Bio:
this catalogue here is to sift musical ideas from. some are incomplete sketches meant to capture motives. your feedback is always a gratifying input. until hoon is ready to produce a record with a set of songs in a refined format, this area will remain an open workshop, a greenhouse.

http://www.hoonmusic.com
http://www.twitter.com/veryveryhoon
http://www.soundcloud.com/hoonkimdirect
http://creativehoon.wordpress.com/

hoon is a musician (singer-songwriter, composer, arranger, producer), multimedia artist and creative entrepreneur from korea. born 1986 in seoul.
haribo's Songs (105)
Date Title Rating Hits Genre Last Comment Status
06.15.09 Fragment 9.42 (3) 3141 (13) Pop Classical 12.18.09 Active
06.10.09 Dreams Bound us 0.00 (0) 1984 (3) Rhythm and Blues 04.08.10 Active
03.24.09 Window Of Opportunities 9.60 (5) 2972 (24) Pop (Alternative) 06.05.09 Active
02.16.09 Blinking Raindrops 9.58 (3) 2107 (14) Classical 10.12.11 Active
02.10.09 Misery Loves Company 9.25 (4) 3158 (22) Classical 04.06.09 Active
12.31.08 Everything You Do 9.83 (3) 2296 (8) Electropop 02.08.09 Active
11.01.08 Hope in the making 9.17 (3) 1995 (7) Classical 12.24.08 Active
10.14.08 Gambia 8.88 (2) 2789 (9) Funk 02.18.09 Active
06.02.08 Minami (Rehearsal) 8.00 (1) 1797 (5) Pop (Alternative) 11.02.10 Active
06.02.08 Jumping with Heartache 9.17 (3) 2099 (5) Classical 07.07.08 Active
01.19.08 I feel blind 9.00 (3) 3465 (15) Pop (Alternative) 04.29.09 Active
11.19.07 Windy Waltz 1 8.75 (6) 3113 (13) Classical 12.09.07 Active
10.04.07 Morning Haze 9.33 (3) 2693 (11) Classical 10.15.08 Active
09.05.07 Drunk walk 1 8.97 (8) 2785 (13) Classical 01.11.08 Active
07.23.07 Indigo And Red 8.84 (8) 2826 (15) Classical 08.04.07 Active
07.06.07 Peppermint 1 7.75 (2) 2084 (8) Dance-Club 07.20.07 Active
06.14.07 Afternoon Stroll 1 8.58 (6) 2692 (12) Classical 07.10.07 Active
05.23.07 Tide 8.94 (4) 2581 (12) Pop (Alternative) 05.26.07 Active
05.14.07 Sheline Tionne  (---) 2366 (9) Jazz (instrumental) 05.23.07 Active
05.14.07 Við gengum tvö (Cover)  (---) 3895 (8) Folk (traditional) 05.24.07 Active
03.16.07 Flying Mobiles 8.79 (6) 3172 (11) Classical 05.05.07 Active
02.15.07 Famile (New ver) 8.63 (8) 2729 (17) Experimental 04.15.07 Active
02.13.07 Kristallen den fina (cover) 8.25 (2) 4269 (8) Folk (traditional) 01.24.08 Active
02.11.07 Trapped 8.56 (4) 2668 (10) Cinematic Soundtrack 02.19.07 Active
02.10.07 Torshavn to Antananarivo 8.65 (5) 2557 (9) Cinematic Soundtrack 02.19.07 Active
02.06.07 Dalda's first molar 7.63 (4) 1731 (2) Classical 02.06.07 Active
02.05.07 Hardworker 7.83 (3) 2104 (6) Classical 02.19.07 Active
01.25.07 Shimmer 8.04 (6) 2289 (10) Classical 01.30.07 Active
01.25.07 Famile 8.75 (3) 2280 (4) Experimental 01.30.07 Active
01.21.07 Evening Walts Suite no. 2 - Titiniu 8.78 (9) 2940 (14) Classical 01.30.07 Active
01.20.07 Pilgrims journey 1 8.88 (4) 2511 (2) Classical 01.21.07 Active
01.18.07 Urban Crusade(re-arranged) 8.58 (6) 2462 (10) Pop (mainstream) 01.29.07 Active
01.13.07 Evening Walts Suite no. 1 - Pipiniu 8.83 (6) 2708 (10) Classical 01.26.07 Active
01.10.07 Serendipity(reuploaded) 8.50 (4) 2534 (8) Pop (mainstream) 01.13.07 Active
01.05.07 War 8.53 (9) 2829 (7) Pop (mainstream) 01.09.07 Active
01.02.07 Evasion 8.94 (13) 4877 (21) Pop (mainstream) 04.29.09 Active
12.18.06 Sanity 8.83 (3) 2166 (6) Classical 12.24.06 Active
12.07.06 sublte burst 2 8.58 (6) 2368 (5) Classical 12.12.06 Active
12.02.06 Fake it 8.78 (15) 2905 (9) Pop (mainstream) 12.06.06 Active
12.01.06 subtle burst 1 8.50 (6) 2480 (7) Classical 12.03.06 Active
11.24.06 Lark 8.44 (4) 2248 (4) Cinematic Soundtrack 12.01.06 Active
11.13.06 Ill-being 8.61 (9) 2551 (14) Ambient 12.02.06 Active
11.05.06 Quicksand 8.63 (8) 2750 (13) Psychedelic 11.13.06 Active
10.21.06 Answer It For You 8.25 (2) 2121 (8) Dance-Club 06.05.09 Active
10.21.06 Landfill (electronic version) 8.36 (7) 2328 (14) Pop (mainstream) 10.29.06 Active
10.21.06 Over the hill & water (melodica) 8.56 (9) 2668 (11) Classical 11.02.06 Active
10.16.06 Urban Crusade 8.58 (9) 2720 (14) Pop (mainstream) 01.28.10 Active
09.28.06 Flourishment Instrumental 8.38 (2) 2011 (4) Classical 09.29.06 Active
09.12.06 Erroneous Neurons 8.54 (7) 2455 (8) Classical 09.17.06 Active
08.30.06 Autumn Expectation 8.64 (9) 3392 (13) Pop (mainstream) 06.30.10 Active
08.26.06 Fish Net 8.44 (4) 2343 (6) Classical 08.30.06 Active
08.25.06 Tori's tragic death 8.17 (3) 1921 (4) Classical 10.24.06 Active
08.04.06 Pilgrimage 8.63 (14) 3857 (18) Alternative Rock 02.05.07 Active
07.04.06 Over the hill and water 7.69 (4) 1978 (5) Classical 07.09.06 Active
06.29.06 Idealistics II 7.25 (6) 2172 (8) Experimental 07.03.06 Active
06.27.06 Bees & Blossom 8.50 (4) 2307 (2) Classical 06.29.06 Active
06.26.06 Jade sea prelude 2 8.29 (7) 2616 (3) Classical 06.26.06 Active
06.24.06 Jade sea prelude 1 8.89 (25) 4474 (27) Classical 07.17.06 Active
06.23.06 eugu samah 7.50 (3) 2142 (6) Experimental 06.24.06 Active
06.20.06 Auta 1 7.42 (3) 1946 (4) Rock (instrumental) 06.24.06 Active
06.10.06 Trees' Island 8.25 (2) 1885 (4) Pop (mainstream) 06.11.06 Active
06.06.06 Quicksand (studio sketch) 8.50 (3) 2535 (7) Pop (mainstream) 06.08.06 Active
06.03.06 okuri 8.38 (2) 1635 (2) Classical 06.04.06 Active
06.01.06 sketch1 8.13 (2) 1887 (2) Folk (traditional) 06.04.06 Active
05.23.06 I'm now relieved (remix) 7.63 (4) 1710 (4) Pop (mainstream) 05.28.06 Active
05.21.06 Helicoption 8.40 (5) 2401 (7) Cinematic Soundtrack 05.23.06 Active
05.06.06 autumn 7.56 (4) 1723 (9) Jazz (instrumental) 05.18.06 Active
04.29.06 bornir 7.75 (1) 1894 (3) Classical 04.30.06 Active
04.28.06 Dance Lundi, Dance! 7.67 (3) 1818 (6) Dance-Club 05.07.06 Active
04.26.06 Landfill 8.00 (3) 1745 (1) Folk (contemporary) 04.28.06 Active
04.23.06 Just Providing mix 2 8.55 (5) 2518 (10) Folk (contemporary) 12.02.06 Active
04.08.06 SORI 8.00 (3) 2339 (8) Folk (contemporary) 04.16.06 Active
04.06.06 Walts Current 1 8.06 (4) 2111 (7) Classical 04.16.06 Active
04.05.06 Revolving in Dead End 7.33 (3) 1713 (1) Jazz (instrumental) 04.05.06 Active
03.22.06 variation 3 8.36 (11) 2628 (9) Classical 03.29.06 Active
03.13.06 INTERNAL CONFLICT2 7.42 (3) 1880 (3) Classical 03.16.06 Active
03.12.06 INTERNAL CONFLICT1 8.21 (6) 2191 (4) Classical 04.07.06 Active
03.09.06 field flashback 1 7.88 (2) 2450 (1) Folk (contemporary) 03.09.06 Active
03.08.06 variation 2 8.42 (3) 2490 (7) Classical 07.04.06 Active
03.06.06 variation 1 8.46 (7) 2737 (5) Classical 04.09.06 Active
02.21.06 whole1 8.13 (2) 1868 (3) Cinematic Soundtrack 02.24.06 Active
02.21.06 organ 1 7.25 (1) 1701 (1) Classical 02.21.06 Active
02.20.06 vollir 7.46 (6) 2178 (8) Dance-Club 04.03.06 Active
02.03.06 answer it for you 8.00 (6) 2716 (6) Pop (mainstream) 03.23.06 Active
02.02.06 just providing 7.58 (3) 2119 (1) Pop (mainstream) 02.03.06 Active
02.01.06 coma 2 6.50 (4) 1709 (2) Experimental 04.29.06 Active
01.25.06 KAVI 8.00 (4) 3429 (2) Folk (contemporary) 02.24.06 Active
01.25.06 Quicksand (Acapella Ver) 6.83 (3) 2915 (6) A Cappella 09.11.07 Active
01.25.06 authentika 8.00 (1) 1785 (3) Experimental 02.04.06 Active
01.24.06 cactus world theme 1 7.00 (1) 1818 (2) Drum n Bass 01.25.06 Active
01.05.06 Girraffe's Adventure 2 6.00 (1) 1887 (0) Classical N/A Active
01.05.06 Quicksand 7.83 (3) 1714 (1) Cinematic Soundtrack 05.14.06 Active
10.27.05 Poodle theme 1 7.63 (2) 1827 (1) Other 12.15.05 Active
08.02.05 Coma 7.56 (4) 2358 (6) Experimental 11.29.05 Active
07.24.05 Memory Drawback 7.83 (10) 2641 (11) Ambient 11.20.05 Active
07.22.05 Giraffe's adventure 7.75 (1) 2511 (5) Cinematic Soundtrack 06.16.07 Active
07.20.05 Derealisation 7.79 (7) 3002 (5) Ambient 08.06.05 Active
07.09.05 inclusively basic 7.66 (8) 3458 (5) Ambient 07.10.05 Active
07.09.05 Knitting comforts 7.50 (3) 1925 (0) Experimental N/A Active
07.08.05 harbouring 7.50 (1) 1853 (3) Experimental 09.18.05 Active
07.08.05 pedaling 7.63 (2) 1750 (1) Ambient 07.09.05 Active
07.08.05 pilnur 7.95 (5) 2348 (3) Ambient 05.03.06 Active
07.08.05 fountain 7.13 (2) 1718 (4) Experimental 07.14.05 Active
07.08.05 to be securely away 7.64 (7) 2742 (10) Folk (contemporary) 02.10.07 Active
07.08.05 pilgrim 7.50 (5) 2616 (3) Ambient 07.09.05 Active
Favorite Songs (128)
Title Artist Date Genre
Amazing Grace (Multi-Collab) magnatone 05.29.09 Blues (contemporary)
The Abyss (007 mix) WharmtonRise 04.27.09 Cinematic Soundtrack
No Eden Here (w/ Andy-bm & Char) tweaked awigze 04.22.09 Jazz (vocal)
It's Lonely Here davisamerica2 04.21.09 Acoustic Rock
Love's Out of Hand w musichead Char 04.10.09 Rock
I'm Bleeding feter,ziti,& pipetones ziti 03.17.09 Blues (contemporary)
Drums of Submission (W/Luna Trick & Morning Light) Skean 03.17.09 Breakbeat
An American Lament awigze 03.16.09 Twentieth Century
Dual Tapestry (w/kassia) magnatone 02.17.09 Piano
SKIN abfkingsport 02.14.09 Hard Rock
Dec-29-2008 Instrumental CogniPhonics 02.14.09 Hip Hop-Rap
Talk - we need to talk (MJRF) thoddi 02.13.09 Blues (contemporary)
Used/I Need A Friend Sea Monk Seven 02.11.09 Psychedelic
Rain of Love (Dadai.2, Jiguma, Roxylee, Vicholman) (MJRF Mix) Feter 02.08.09 Acoustic
Eastern Promise (MJRF Mix) Diviner 02.07.09 Middle Eastern
Still, She Weeps (Ember-CharMix) Char 01.29.09 Ballad
Come Home Babe Feter 12.28.08 Blues (contemporary)
Strip Club jgurner 12.27.08 Ambient
got no credit egobandit 12.23.08 Psychedelic
Meridian Cycle magnatone 12.08.08 Pop Classical
Scherzo 2 gisli 11.14.08 Classical
Lullaby Cori Ander 11.04.08 Fingerstyle Guitar
Fugue 3 (for harpsichord) gisli 10.20.08 Baroque
give up egobandit 10.13.08 Art Rock
Everything to lose MarkHolbrook 10.13.08 Alternative Rock
Dude! Ibstrat 10.08.08 Funk
The lighthouse keeper apb 09.28.08 Pop (Alternative)
Cumulus Parichayaka 09.18.08 Cinematic Soundtrack
Mazurka no. 1 gisli 09.16.08 Classical
Edge of Reason(remaster) ziti 08.11.08 Rock (instrumental)
Learning What I Already Know futzpucker 08.11.08 Jazz (instrumental)
Vortigern's Fortress (EKNM) TobinMueller 07.16.08 Classical
Capricho Arabe Vr2 / Re-recorded and mixed thetiler 06.02.08 Classical
Capricho Arabe thetiler 05.31.08 Classical
Elevated Passage magnatone 05.28.08 Pop Orchestral
Sierra Madre futzpucker 04.09.08 Cinematic Soundtrack
Improvisation #1 ehalbert 02.23.08 Piano
Heroes apb 01.19.08 Pop (Alternative)
McZorro 08 ziti 12.31.07 Latin
Arctic Ant Electric Lobster 12.18.07 Trip Hop
Black Forest Dance drakonis 09.03.07 Romantic
Laughing Song (dance mix) bud 08.29.07 Dance-Club
Sanctuary Parichayaka 08.29.07 Cinematic Soundtrack
walls of paper moorlandt 07.22.07 Downtempo
Lamentations composerclark 07.19.07 Classical
Puski duski apb 07.10.07 Children's Music
Ocean's Fluke Parichayaka 06.20.07 Jazz Fusion
Honest_P2 Feter 05.26.07 Classical
Cuppa Joe remix with Jiguma and Joe Brady bud 05.15.07 Rockabilly
The End Estella 05.15.07 Other
Nocturne Numero Dos Enrique Gil 05.07.07 Classical
Afternoon traffic gisli 04.07.07 Classical
Different Pianos gisli 03.17.07 Classical
Foot of the Bed guitapick 03.17.07 Children's Music
What do You Mean musichead 03.16.07 Acoustic
Öll hefir ætt til hylli gisli 02.24.07 Experimental
Hijos Perdidos SecaMode 02.18.07 Ethnic-International
What's Happenin? bud 02.18.07 Other
Dream, pt. 6 gisli 02.17.07 Experimental
Dream, pt. 2 gisli 02.17.07 Experimental
Lísa í Undralandi gisli 02.16.07 Classical
Cigarette Man w/APB & Musichead Estella 02.14.07 Pop (mainstream)
Heroes Parichayaka 02.13.07 Cinematic Soundtrack
Butterflies Shimky 02.13.07 Jazz (instrumental)
Frogments (with DAVE!) ***itiswotitis*** 02.13.07 Techno
TANGORIENTAL DOCTORBIZARRE 02.13.07 Middle Eastern
Moorlandt's 'Somehow' alfalpha 02.12.07 Downtempo
Dream, pt. 1 gisli 02.12.07 Experimental
YourTwin w/Allanah musichead 02.09.07 Pop (mainstream)
Real World (apb vs iVor mix) apb 02.05.07 Pop (mainstream)
When The Future Comes (w/ Twon, Alimar, Audiocracy) TobinMueller 02.01.07 Progressive Rock
Shark Shimky 01.30.07 Experimental
Treasure and Tallant [Chords Fixed] EZamor 01.30.07 Open Collaborations
Offensively Mellow peacepiano 01.28.07 Jazz (instrumental)
Cigarette Man Estella 01.26.07 Acoustic
Back Pedal VicDiesel 01.24.07 Twentieth Century
drop tha Bomb Livingstone 01.18.07 Breakbeat
Fluctuations MrBajen 01.18.07 Classical
To McBoy: 2 Peas in a Chili Pod TobinMueller 01.16.07 Piano
Orchestral Variations on a recurring unvaried rhythmic theme in 15/8 decaying. cchaplin 01.14.07 Classical
Im Here And then Im There musichead 01.12.07 MuzaK
Aftermath composerclark 01.09.07 Classical
Evereal (New Version) springclock 01.06.07 Alternative Rock
Waiting for the Other dchapman 01.03.07 Rock (instrumental)
Simply Fine Ed Hannifin 01.02.07 Folk (contemporary)
Somehow moorlandt 12.30.06 Downtempo
A Monk Caught in the Thelonious Sphere TobinMueller 12.29.06 Blues (traditional)
Spacehopper apb 12.26.06 Folk-Rock
Shape Changer (with piano line) Estella 12.20.06 Acoustic
Big (with some balancing this time) Estella 12.19.06 Acoustic Rock
Marche Militarie No1 Cori Ander 12.17.06 Fingerstyle Guitar
Journey To The Centre Of The Loop alfalpha 12.09.06 Progressive Rock
Yesteryears Particulate Eden 12.02.06 Trip Hop
quiet on Stun Nutz 12.02.06 Lo-fi
Curry Rag Cori Ander 11.07.06 Fingerstyle Guitar
Take You Down To The Sea Ed Hannifin 11.06.06 Folk (contemporary)
The Silver Screen Day For Night 11.05.06 Soft Rock-Adult Contemporary
MusiMorphosis drakonis 11.03.06 Pop Orchestral
Town at my heels Day For Night 10.26.06 Alternative Rock
Chaos of the Subconscious TobinMueller 10.24.06 Twentieth Century
A Rainy Day (Down On Earth) Electric Lobster 10.17.06 Cinematic Soundtrack
nothing's left inside moorlandt 10.17.06 Downtempo
DidgeEmber (with Didge-Ache) drakonis 10.08.06 Ambient
Say you don't love me apb 10.01.06 Pop (mainstream)
INTERPLANETARY DOCTORBIZARRE 09.27.06 Smooth Jazz
Valkyrié MK III (With Moorlandt) trebbia 09.24.06 Alternative Rock
A Final Moment futzpucker 09.19.06 Jazz (instrumental)
Feeling my way stevel 09.03.06 Blues (contemporary)
Minister's daughter (w/Didge-ache & 'The Winch') apb 09.02.06 Folk-Rock
You Look Well In The Dark [vox/ Wildcat] Electric Lobster 08.23.06 Experimental
Latest Monster musichead 08.21.06 Rhythm and Blues
Song of Songs composerclark 08.16.06 Classical
Moodiness # 4 musichead 08.11.06 Pop (mainstream)
McGillicuddy's Rant (guitar solo) composerclark 08.06.06 Classical
And from that silence (revised) Mystified 06.04.06 Classical
3 Pieces for Orchestra, #3 composerclark 05.19.06 Classical
3 Pieces for Orchestra, #1 composerclark 05.13.06 Classical
First Sight macgalver 05.12.06 Acoustic
Into the Deep Einarus 03.05.06 Spoken Word-Poetry
A New Unknown Tom Atwood 01.17.06 Cinematic Soundtrack
chucka chucka woo woo springclock 01.03.06 Electropop
ElfDaughter's 'Song of the Sea' (Alfalpha remix) alfalpha 09.24.05 Open Collaborations
Ember-Rekindled drakonis 09.05.05 Open Collaborations
I Love My Feelings Towards You More Than I Love You Contort Yourself 07.28.05 Other
Cori Ander's Rag Tom Atwood 07.20.05 Folk (contemporary)
American Fanfare Tom Atwood 07.05.05 Classical
Ballerine en Bleu Boris the Bull 05.17.05 Folk (contemporary)
a good thing going on country john 05.16.05 Open Collaborations
Favorite MacJammers (40)
Fans (42)
Music Background
Music Skills
Music Hardware
Music Software
Keywords